Time;durP1;ratioP1;P1;durP2;ratioP2;P2;SDS_P1;SDS_P2;PMS_P1;PMS_P2;Temp;Humidity;BMP_temperature;BMP_pressure;BME280_temperature;BME280_humidity;BME280_pressure;Samples;Min_cycle;Max_cycle;Signal;HPM_P1;HPM_P2
2023/07/09 00:01:39;;;;;;;221.40;141.13;;;;;;;;;;5055911;28;20469;-69
2023/07/09 00:04:08;;;;;;;235.30;153.15;;;;;;;;;;5055951;28;20025;-71
2023/07/09 00:06:35;;;;;;;134.18;74.40;;;;;;;;;;5055810;28;20496;-66
2023/07/09 00:09:02;;;;;;;102.97;56.40;;;;;;;;;;5055854;28;20507;-67
2023/07/09 00:11:28;;;;;;;94.95;54.60;;;;;;;;;;5057781;28;20024;-66
2023/07/09 00:13:55;;;;;;;97.82;59.50;;;;;;;;;;5075865;28;20385;-66
2023/07/09 00:16:24;;;;;;;61.38;38.75;;;;;;;;;;5075942;28;20028;-65
2023/07/09 00:18:51;;;;;;;70.65;44.90;;;;;;;;;;5075690;28;20095;-66
2023/07/09 00:21:20;;;;;;;65.10;37.58;;;;;;;;;;5075517;28;20025;-67
2023/07/09 00:23:48;;;;;;;69.20;37.55;;;;;;;;;;5075694;28;20021;-66
2023/07/09 00:26:15;;;;;;;54.30;35.15;;;;;;;;;;5075458;28;20081;-65
2023/07/09 00:28:42;;;;;;;75.70;43.25;;;;;;;;;;5075367;28;20021;-66
2023/07/09 00:31:14;;;;;;;61.25;35.25;;;;;;;;;;5075476;28;20473;-66
2023/07/09 00:33:41;;;;;;;40.33;26.15;;;;;;;;;;5075277;28;20062;-65
2023/07/09 00:36:28;;;;;;;73.75;45.25;;;;;;;;;;5075268;28;20052;-67
2023/07/09 00:39:00;;;;;;;57.83;34.53;;;;;;;;;;5075102;28;20036;-66
2023/07/09 00:41:28;;;;;;;;;;;;;;;;;;5075569;28;20102;-67
2023/07/09 00:43:54;;;;;;;59.92;34.95;;;;;;;;;;5074980;28;20378;-67
2023/07/09 00:46:23;;;;;;;48.03;27.85;;;;;;;;;;5075079;28;20020;-68
2023/07/09 00:48:54;;;;;;;38.22;25.75;;;;;;;;;;5075437;28;20381;-68
2023/07/09 00:51:23;;;;;;;39.28;26.83;;;;;;;;;;5075137;28;20021;-68
2023/07/09 00:53:53;;;;;;;47.97;28.35;;;;;;;;;;5074867;28;20032;-67
2023/07/09 00:56:26;;;;;;;40.42;25.75;;;;;;;;;;5075110;28;20048;-69
2023/07/09 00:58:55;;;;;;;49.80;30.35;;;;;;;;;;5066174;28;20109;-68
2023/07/09 01:01:21;;;;;;;39.92;24.30;;;;;;;;;;5058376;28;20028;-68
2023/07/09 01:03:50;;;;;;;33.10;22.75;;;;;;;;;;5054733;28;20035;-69
2023/07/09 01:06:20;;;;;;;37.63;24.35;;;;;;;;;;5054574;28;20070;-70
2023/07/09 01:08:53;;;;;;;75.00;48.35;;;;;;;;;;5054081;28;20389;-69
2023/07/09 01:11:22;;;;;;;37.22;25.17;;;;;;;;;;5054713;28;20028;-69
2023/07/09 01:13:51;;;;;;;55.90;35.13;;;;;;;;;;5054541;28;20041;-69
2023/07/09 01:16:18;;;;;;;103.00;67.15;;;;;;;;;;5054799;28;20028;-69
2023/07/09 01:18:45;;;;;;;65.72;40.88;;;;;;;;;;5054574;28;20087;-70
2023/07/09 01:21:15;;;;;;;56.80;39.33;;;;;;;;;;5054425;28;20029;-69
2023/07/09 01:23:44;;;;;;;110.88;69.18;;;;;;;;;;5054328;28;20033;-68
2023/07/09 01:26:12;;;;;;;89.47;56.97;;;;;;;;;;5054363;28;20142;-69
2023/07/09 01:28:43;;;;;;;120.10;75.40;;;;;;;;;;5054172;28;20105;-69
2023/07/09 01:31:11;;;;;;;107.40;75.43;;;;;;;;;;5054452;28;20029;-69
2023/07/09 01:33:39;;;;;;;119.25;81.07;;;;;;;;;;5054264;28;20040;-69
2023/07/09 01:36:08;;;;;;;135.40;87.57;;;;;;;;;;5054149;28;20036;-69
2023/07/09 01:38:35;;;;;;;63.38;41.78;;;;;;;;;;5054229;28;20017;-69
2023/07/09 01:41:02;;;;;;;43.25;30.40;;;;;;;;;;5054405;28;20473;-69
2023/07/09 01:43:29;;;;;;;42.70;24.13;;;;;;;;;;5054330;28;20460;-69
2023/07/09 01:45:57;;;;;;;38.17;25.58;;;;;;;;;;5054246;28;20013;-69
2023/07/09 01:48:25;;;;;;;46.65;25.30;;;;;;;;;;5054152;28;20503;-65
2023/07/09 01:50:52;;;;;;;38.25;23.92;;;;;;;;;;5054168;28;20470;-66
2023/07/09 01:53:20;;;;;;;111.18;78.88;;;;;;;;;;5053912;28;20422;-66
2023/07/09 01:55:47;;;;;;;76.22;52.63;;;;;;;;;;5053710;28;20105;-64
2023/07/09 01:58:16;;;;;;;277.38;191.52;;;;;;;;;;5053866;28;20020;-66
2023/07/09 02:00:43;;;;;;;70.22;51.10;;;;;;;;;;5053758;28;20108;-66
2023/07/09 02:03:09;;;;;;;136.30;97.05;;;;;;;;;;5053553;28;20086;-65
2023/07/09 02:05:36;;;;;;;104.95;72.45;;;;;;;;;;5053739;28;20025;-66
2023/07/09 02:08:04;;;;;;;69.93;52.25;;;;;;;;;;5055929;28;20029;-66
2023/07/09 02:10:30;;;;;;;49.20;34.15;;;;;;;;;;5062227;28;20075;-66
2023/07/09 02:12:57;;;;;;;42.25;29.60;;;;;;;;;;5053569;28;20025;-66
2023/07/09 02:15:24;;;;;;;79.93;50.70;;;;;;;;;;5053473;28;20036;-65
2023/07/09 02:17:52;;;;;;;50.88;30.55;;;;;;;;;;5061133;28;20389;-66
2023/07/09 02:20:19;;;;;;;44.83;32.80;;;;;;;;;;5056084;28;20505;-65
2023/07/09 02:22:45;;;;;;;39.75;26.40;;;;;;;;;;5053263;28;20025;-66
2023/07/09 02:25:12;;;;;;;35.95;24.63;;;;;;;;;;5053174;28;20082;-64
2023/07/09 02:27:39;;;;;;;31.23;23.60;;;;;;;;;;5053098;28;20021;-66
2023/07/09 02:30:07;;;;;;;39.70;26.90;;;;;;;;;;5053179;28;20488;-67
2023/07/09 02:32:33;;;;;;;53.42;37.50;;;;;;;;;;5067440;28;20071;-66
2023/07/09 02:35:00;;;;;;;40.47;26.60;;;;;;;;;;5064612;28;20024;-66
2023/07/09 02:37:27;;;;;;;38.67;24.33;;;;;;;;;;5053358;28;20025;-66
2023/07/09 02:39:53;;;;;;;39.33;28.17;;;;;;;;;;5053226;28;20120;-65
2023/07/09 02:42:21;;;;;;;42.35;24.00;;;;;;;;;;5053131;28;20099;-67
2023/07/09 02:44:48;;;;;;;64.18;38.53;;;;;;;;;;5052941;28;20052;-65
2023/07/09 02:47:15;;;;;;;28.25;16.95;;;;;;;;;;5053217;28;20021;-64
2023/07/09 02:49:41;;;;;;;22.08;12.10;;;;;;;;;;5063723;28;20025;-65
2023/07/09 02:52:08;;;;;;;29.92;15.05;;;;;;;;;;5053189;28;20029;-66
2023/07/09 02:54:35;;;;;;;29.80;17.75;;;;;;;;;;5053179;28;20021;-66
2023/07/09 02:57:05;;;;;;;25.88;18.80;;;;;;;;;;5064713;28;20024;-65
2023/07/09 02:59:32;;;;;;;37.70;23.70;;;;;;;;;;5073051;28;20141;-66
2023/07/09 03:01:59;;;;;;;25.23;15.85;;;;;;;;;;5072961;28;20393;-66
2023/07/09 03:04:26;;;;;;;93.22;60.95;;;;;;;;;;5072792;28;20033;-65
2023/07/09 03:06:53;;;;;;;27.67;17.60;;;;;;;;;;5073099;28;20024;-65
2023/07/09 03:09:20;;;;;;;25.80;16.65;;;;;;;;;;5072929;28;20032;-66
2023/07/09 03:11:47;;;;;;;17.10;12.57;;;;;;;;;;5072829;28;20059;-66
2023/07/09 03:14:13;;;;;;;22.33;16.63;;;;;;;;;;5072823;28;20032;-66
2023/07/09 03:16:40;;;;;;;26.63;17.30;;;;;;;;;;5072988;28;20024;-67
2023/07/09 03:19:07;;;;;;;20.30;13.65;;;;;;;;;;5072756;28;20108;-65
2023/07/09 03:21:34;;;;;;;23.65;15.02;;;;;;;;;;5072837;28;20430;-66
2023/07/09 03:24:00;;;;;;;19.80;13.07;;;;;;;;;;5073064;28;20024;-66
2023/07/09 03:26:27;;;;;;;19.42;14.18;;;;;;;;;;5073131;28;20427;-66
2023/07/09 03:28:54;;;;;;;35.85;26.23;;;;;;;;;;5073205;28;20029;-64
2023/07/09 03:31:21;;;;;;;29.40;21.25;;;;;;;;;;5073249;28;20048;-65
2023/07/09 03:33:48;;;;;;;19.67;14.65;;;;;;;;;;5071046;28;20427;-66
2023/07/09 03:36:15;;;;;;;29.67;18.42;;;;;;;;;;5075083;28;20159;-66
2023/07/09 03:38:42;;;;;;;29.25;18.40;;;;;;;;;;5061719;28;20056;-66
2023/07/09 03:41:08;;;;;;;19.70;13.57;;;;;;;;;;5070780;28;20508;-66
2023/07/09 03:43:35;;;;;;;18.63;12.43;;;;;;;;;;5076467;28;20049;-64
2023/07/09 03:46:02;;;;;;;14.80;9.55;;;;;;;;;;5076518;28;20024;-68
2023/07/09 03:48:28;;;;;;;36.03;15.60;;;;;;;;;;5076238;28;20025;-68
2023/07/09 03:50:55;;;;;;;19.40;11.23;;;;;;;;;;5076144;28;20028;-66
2023/07/09 03:53:22;;;;;;;18.10;11.07;;;;;;;;;;5075958;28;20360;-66
2023/07/09 03:55:52;;;;;;;31.02;20.88;;;;;;;;;;5076088;28;20108;-66
2023/07/09 03:58:19;;;;;;;51.22;36.92;;;;;;;;;;5076156;28;20036;-68
2023/07/09 04:00:46;;;;;;;32.58;22.80;;;;;;;;;;5069015;28;20052;-67
2023/07/09 04:03:12;;;;;;;23.95;15.25;;;;;;;;;;5074053;28;20107;-67
2023/07/09 04:05:39;;;;;;;19.02;12.80;;;;;;;;;;5081688;28;20017;-67
2023/07/09 04:08:06;;;;;;;20.13;13.73;;;;;;;;;;5063282;28;20100;-69
2023/07/09 04:10:33;;;;;;;37.75;22.52;;;;;;;;;;5063104;28;20029;-67
2023/07/09 04:12:59;;;;;;;20.48;11.93;;;;;;;;;;5064658;28;20029;-68
2023/07/09 04:15:27;;;;;;;16.13;9.32;;;;;;;;;;5065978;28;20031;-66
2023/07/09 04:17:54;;;;;;;15.25;8.65;;;;;;;;;;5061650;28;20033;-66
2023/07/09 04:20:21;;;;;;;11.02;7.93;;;;;;;;;;5061479;28;20037;-68
2023/07/09 04:22:48;;;;;;;21.63;11.30;;;;;;;;;;5058699;28;20053;-72
2023/07/09 04:25:15;;;;;;;16.65;9.65;;;;;;;;;;5067630;28;20036;-68
2023/07/09 04:27:41;;;;;;;13.40;9.35;;;;;;;;;;5068159;28;20032;-66
2023/07/09 04:30:13;;;;;;;14.02;8.27;;;;;;;;;;5060016;28;20059;-68
2023/07/09 04:32:39;;;;;;;12.98;8.75;;;;;;;;;;5064569;28;20020;-67
2023/07/09 04:35:06;;;;;;;19.55;8.93;;;;;;;;;;5071426;28;20369;-68
2023/07/09 04:37:33;;;;;;;10.45;7.72;;;;;;;;;;5066388;28;20029;-68
2023/07/09 04:40:00;;;;;;;10.07;6.97;;;;;;;;;;5064893;28;20135;-67
2023/07/09 04:42:26;;;;;;;70.20;44.38;;;;;;;;;;5064335;28;20048;-69
2023/07/09 04:44:53;;;;;;;52.58;35.70;;;;;;;;;;5061052;28;20559;-67
2023/07/09 04:47:19;;;;;;;16.02;10.27;;;;;;;;;;5062083;28;20070;-65
2023/07/09 04:49:46;;;;;;;12.07;9.00;;;;;;;;;;5061618;28;20024;-67
2023/07/09 04:52:14;;;;;;;13.40;9.10;;;;;;;;;;5065711;28;20024;-66
2023/07/09 04:54:44;;;;;;;15.30;8.20;;;;;;;;;;5065019;28;20059;-64
2023/07/09 04:57:12;;;;;;;29.73;15.45;;;;;;;;;;5064518;28;20028;-67
2023/07/09 04:59:39;;;;;;;20.90;13.77;;;;;;;;;;5065350;28;20025;-66
2023/07/09 05:02:05;;;;;;;20.33;12.48;;;;;;;;;;5065382;28;20074;-67
2023/07/09 05:04:32;;;;;;;10.43;6.97;;;;;;;;;;5075504;28;20042;-68
2023/07/09 05:06:59;;;;;;;10.40;7.25;;;;;;;;;;5068488;28;20056;-67
2023/07/09 05:09:26;;;;;;;45.80;31.05;;;;;;;;;;5058478;28;20088;-68
2023/07/09 05:11:53;;;;;;;15.73;9.75;;;;;;;;;;5063812;28;20066;-66
2023/07/09 05:14:19;;;;;;;15.32;9.52;;;;;;;;;;5064455;28;20051;-69
2023/07/09 05:16:46;;;;;;;19.60;9.20;;;;;;;;;;5077188;28;20028;-70
2023/07/09 05:19:13;;;;;;;40.30;30.60;;;;;;;;;;5074381;28;20048;-68
2023/07/09 05:21:39;;;;;;;18.35;11.98;;;;;;;;;;5068324;28;20071;-69
2023/07/09 05:24:07;;;;;;;17.20;8.52;;;;;;;;;;5070120;28;20032;-68
2023/07/09 05:26:33;;;;;;;14.43;7.93;;;;;;;;;;5074604;28;20056;-65
2023/07/09 05:29:00;;;;;;;104.63;76.97;;;;;;;;;;5060934;28;20486;-66
2023/07/09 05:31:26;;;;;;;39.67;22.63;;;;;;;;;;5054878;28;20040;-67
2023/07/09 05:33:53;;;;;;;16.73;11.63;;;;;;;;;;5060363;28;20037;-67
2023/07/09 05:36:20;;;;;;;10.95;7.93;;;;;;;;;;5065848;28;20151;-66
2023/07/09 05:38:47;;;;;;;10.38;7.38;;;;;;;;;;5064125;28;20017;-66
2023/07/09 05:41:16;;;;;;;11.32;6.50;;;;;;;;;;5062507;28;20028;-64
2023/07/09 05:43:44;;;;;;;21.67;11.55;;;;;;;;;;5062850;28;20079;-64
2023/07/09 05:46:11;;;;;;;71.57;48.28;;;;;;;;;;5059494;28;20595;-69
2023/07/09 05:48:38;;;;;;;17.55;13.32;;;;;;;;;;5057796;28;20285;-67
2023/07/09 05:51:05;;;;;;;41.83;28.75;;;;;;;;;;5057621;28;20039;-69
2023/07/09 05:53:33;;;;;;;8.95;7.10;;;;;;;;;;5064721;28;20488;-67
2023/07/09 05:56:00;;;;;;;16.38;11.27;;;;;;;;;;5061870;28;20029;-67
2023/07/09 05:58:26;;;;;;;12.63;8.70;;;;;;;;;;5063330;28;20069;-67
2023/07/09 06:00:54;;;;;;;8.25;6.15;;;;;;;;;;5064819;28;20090;-67
2023/07/09 06:03:21;;;;;;;10.93;6.03;;;;;;;;;;5063143;28;20020;-67
2023/07/09 06:05:50;;;;;;;10.35;5.95;;;;;;;;;;5064217;28;20487;-69
2023/07/09 06:08:18;;;;;;;8.60;5.97;;;;;;;;;;5064689;28;20044;-65
2023/07/09 06:10:54;;;;;;;8.75;5.95;;;;;;;;;;5065959;28;20103;-66
2023/07/09 06:13:21;;;;;;;18.33;12.32;;;;;;;;;;5064859;28;20031;-67
2023/07/09 06:15:51;;;;;;;10.32;5.68;;;;;;;;;;5062684;28;20607;-67
2023/07/09 06:18:17;;;;;;;15.38;11.30;;;;;;;;;;5064345;28;20079;-66
2023/07/09 06:20:47;;;;;;;10.75;7.47;;;;;;;;;;5063723;28;20032;-66
2023/07/09 06:23:14;;;;;;;9.98;7.00;;;;;;;;;;5064193;28;20028;-65
2023/07/09 06:25:40;;;;;;;13.68;6.78;;;;;;;;;;5065869;28;20377;-63
2023/07/09 06:28:07;;;;;;;10.23;6.45;;;;;;;;;;5056774;28;20029;-67
2023/07/09 06:30:33;;;;;;;8.40;5.32;;;;;;;;;;5057364;28;20012;-66
2023/07/09 06:33:00;;;;;;;7.95;5.05;;;;;;;;;;5064781;28;20066;-66
2023/07/09 06:35:27;;;;;;;9.65;5.78;;;;;;;;;;5067311;28;20431;-67
2023/07/09 06:37:53;;;;;;;8.18;4.93;;;;;;;;;;5059399;28;20108;-64
2023/07/09 06:40:20;;;;;;;16.35;6.78;;;;;;;;;;5058028;28;20021;-65
2023/07/09 06:42:46;;;;;;;10.65;6.18;;;;;;;;;;5060192;28;20478;-65
2023/07/09 06:45:13;;;;;;;6.43;4.85;;;;;;;;;;5059720;28;20116;-65
2023/07/09 06:47:40;;;;;;;6.85;5.25;;;;;;;;;;5058335;28;20580;-64
2023/07/09 06:50:07;;;;;;;10.15;5.80;;;;;;;;;;5057838;28;20108;-64
2023/07/09 06:52:33;;;;;;;15.73;4.60;;;;;;;;;;5054966;28;20525;-65
2023/07/09 06:55:00;;;;;;;14.25;4.72;;;;;;;;;;5054316;28;20414;-67
2023/07/09 06:57:27;;;;;;;18.50;5.03;;;;;;;;;;5059601;28;20411;-71
2023/07/09 06:59:53;;;;;;;13.27;5.60;;;;;;;;;;5063495;28;20470;-72
2023/07/09 07:02:20;;;;;;;18.42;7.88;;;;;;;;;;5060978;28;20036;-71
2023/07/09 07:04:47;;;;;;;18.13;8.73;;;;;;;;;;5063496;28;20020;-73
2023/07/09 07:07:13;;;;;;;13.20;7.47;;;;;;;;;;5066981;28;20039;-69
2023/07/09 07:09:40;;;;;;;9.95;5.32;;;;;;;;;;5065604;28;20021;-69
2023/07/09 07:12:07;;;;;;;18.50;6.50;;;;;;;;;;5066188;28;20052;-69
2023/07/09 07:14:33;;;;;;;19.45;6.90;;;;;;;;;;5066654;28;20032;-68
2023/07/09 07:17:00;;;;;;;16.63;6.40;;;;;;;;;;5068275;28;20028;-69
2023/07/09 07:19:27;;;;;;;13.65;4.68;;;;;;;;;;5066024;28;20056;-69
2023/07/09 07:21:54;;;;;;;8.75;3.92;;;;;;;;;;5065217;28;20100;-69
2023/07/09 07:24:20;;;;;;;10.00;4.07;;;;;;;;;;5071089;28;20028;-69
2023/07/09 07:26:47;;;;;;;12.90;4.15;;;;;;;;;;5065222;28;20116;-68
2023/07/09 07:29:14;;;;;;;5.88;3.00;;;;;;;;;;5065142;28;20055;-68
2023/07/09 07:31:40;;;;;;;5.22;2.70;;;;;;;;;;5065626;28;20036;-68
2023/07/09 07:34:07;;;;;;;6.07;3.55;;;;;;;;;;5065751;28;20099;-70
2023/07/09 07:36:33;;;;;;;5.32;3.20;;;;;;;;;;5066476;28;20025;-66
2023/07/09 07:39:00;;;;;;;8.70;3.92;;;;;;;;;;5067370;28;20417;-70
2023/07/09 07:41:27;;;;;;;4.75;3.33;;;;;;;;;;5068772;28;20348;-67
2023/07/09 07:43:54;;;;;;;30.65;12.73;;;;;;;;;;5067269;28;20069;-70
2023/07/09 07:46:20;;;;;;;34.95;12.80;;;;;;;;;;5062298;28;20056;-68
2023/07/09 07:48:47;;;;;;;31.35;10.10;;;;;;;;;;5057931;28;20043;-69
2023/07/09 07:51:13;;;;;;;19.80;9.70;;;;;;;;;;5058267;28;20017;-70
2023/07/09 07:53:40;;;;;;;16.48;6.72;;;;;;;;;;5059465;28;20025;-66
2023/07/09 07:56:07;;;;;;;13.27;5.78;;;;;;;;;;5065256;28;20092;-71
2023/07/09 07:58:33;;;;;;;18.23;7.05;;;;;;;;;;5062809;28;20030;-71
2023/07/09 08:01:00;;;;;;;24.83;8.85;;;;;;;;;;5063818;28;20428;-69
2023/07/09 08:03:27;;;;;;;15.80;8.50;;;;;;;;;;5066268;28;20367;-70
2023/07/09 08:05:54;;;;;;;15.20;9.70;;;;;;;;;;5065224;28;20016;-69
2023/07/09 08:08:21;;;;;;;15.00;8.60;;;;;;;;;;5065118;28;20044;-69
2023/07/09 08:10:47;;;;;;;15.95;7.32;;;;;;;;;;5064114;28;20053;-68
2023/07/09 08:13:14;;;;;;;13.27;8.35;;;;;;;;;;5064341;28;20028;-69
2023/07/09 08:15:41;;;;;;;11.15;8.07;;;;;;;;;;5064016;28;20347;-69
2023/07/09 08:18:08;;;;;;;18.23;8.50;;;;;;;;;;5064573;28;20564;-68
2023/07/09 08:20:35;;;;;;;17.75;9.00;;;;;;;;;;5066070;28;20066;-67
2023/07/09 08:23:02;;;;;;;20.98;9.15;;;;;;;;;;5066060;28;20526;-69
2023/07/09 08:25:28;;;;;;;18.42;9.65;;;;;;;;;;5065467;28;20043;-70
2023/07/09 08:27:55;;;;;;;88.80;66.97;;;;;;;;;;5064790;28;20020;-70
2023/07/09 08:30:21;;;;;;;63.63;39.05;;;;;;;;;;5063351;28;20017;-70
2023/07/09 08:32:48;;;;;;;125.88;79.78;;;;;;;;;;5064087;28;20044;-70
2023/07/09 08:35:15;;;;;;;36.50;25.00;;;;;;;;;;5063569;28;20033;-69
2023/07/09 08:37:42;;;;;;;18.63;11.60;;;;;;;;;;5065950;28;20017;-72
2023/07/09 08:40:13;;;;;;;9.80;6.63;;;;;;;;;;5064679;28;20093;-70
2023/07/09 08:42:45;;;;;;;9.07;6.15;;;;;;;;;;5066069;28;20021;-70
2023/07/09 08:45:17;;;;;;;7.57;4.85;;;;;;;;;;5068055;28;20045;-70
2023/07/09 08:47:43;;;;;;;;;;;;;;;;;;5067736;28;20025;-70
2023/07/09 08:50:13;;;;;;;6.13;3.63;;;;;;;;;;5066121;28;19904;-70
2023/07/09 08:52:41;;;;;;;5.22;3.28;;;;;;;;;;5065413;28;20083;-71
2023/07/09 08:55:09;;;;;;;5.88;2.83;;;;;;;;;;5064020;28;20025;-70
2023/07/09 08:57:40;;;;;;;6.45;3.80;;;;;;;;;;5064779;28;20029;-69
2023/07/09 09:00:12;;;;;;;11.40;6.78;;;;;;;;;;5064203;28;20103;-72
2023/07/09 09:02:45;;;;;;;13.90;7.07;;;;;;;;;;5056177;28;20036;-71
2023/07/09 09:05:14;;;;;;;30.25;19.85;;;;;;;;;;5055040;28;20033;-71
2023/07/09 09:07:42;;;;;;;13.63;6.47;;;;;;;;;;5055125;28;20104;-71
2023/07/09 09:10:19;;;;;;;18.40;7.50;;;;;;;;;;5055415;28;20032;-71
2023/07/09 09:12:48;;;;;;;14.02;7.07;;;;;;;;;;5054849;28;20492;-68
2023/07/09 09:15:18;;;;;;;10.73;6.10;;;;;;;;;;5054803;28;20029;-68
2023/07/09 09:17:45;;;;;;;8.00;4.35;;;;;;;;;;5055584;28;20484;-69
2023/07/09 09:20:14;;;;;;;11.90;4.97;;;;;;;;;;5055007;28;20539;-67
2023/07/09 09:22:50;;;;;;;8.45;3.67;;;;;;;;;;5054787;28;20074;-67
2023/07/09 09:25:22;;;;;;;6.38;3.55;;;;;;;;;;5054653;28;20489;-67
2023/07/09 09:27:50;;;;;;;10.07;3.75;;;;;;;;;;5055554;28;20465;-67
2023/07/09 09:30:18;;;;;;;6.40;2.50;;;;;;;;;;5073035;28;20029;-66
2023/07/09 09:32:48;;;;;;;8.98;3.40;;;;;;;;;;5063763;28;20078;-68
2023/07/09 09:35:16;;;;;;;4.90;2.92;;;;;;;;;;5074381;28;20107;-68
2023/07/09 09:37:44;;;;;;;7.10;3.28;;;;;;;;;;5073916;28;20505;-67
2023/07/09 09:40:11;;;;;;;8.77;4.03;;;;;;;;;;5073744;28;20073;-67
2023/07/09 09:42:38;;;;;;;30.38;16.42;;;;;;;;;;5073160;28;20443;-71
2023/07/09 09:45:10;;;;;;;25.52;11.98;;;;;;;;;;5074244;28;20045;-71
2023/07/09 09:47:36;;;;;;;17.13;6.97;;;;;;;;;;5074671;28;20422;-71
2023/07/09 09:50:03;;;;;;;14.55;7.57;;;;;;;;;;5074193;28;20029;-67
2023/07/09 09:52:34;;;;;;;20.55;11.98;;;;;;;;;;5074276;28;20032;-69
2023/07/09 09:55:04;;;;;;;21.00;12.38;;;;;;;;;;5074706;28;20111;-69
2023/07/09 09:57:31;;;;;;;16.33;9.60;;;;;;;;;;5074322;22;20064;-69
2023/07/09 09:59:59;;;;;;;13.15;7.07;;;;;;;;;;5034052;28;20026;-69
2023/07/09 10:02:26;;;;;;;10.35;6.53;;;;;;;;;;5032239;28;20360;-69
2023/07/09 10:04:53;;;;;;;11.05;6.88;;;;;;;;;;5024118;28;20116;-69
2023/07/09 10:07:23;;;;;;;21.20;9.48;;;;;;;;;;5014319;28;20021;-72
2023/07/09 10:09:49;;;;;;;29.38;11.20;;;;;;;;;;5014755;28;20072;-73
2023/07/09 10:12:25;;;;;;;18.58;10.27;;;;;;;;;;5014451;28;20076;-71
2023/07/09 10:15:05;;;;;;;18.35;9.18;;;;;;;;;;5013965;28;20442;-72
2023/07/09 10:17:37;;;;;;;19.38;10.27;;;;;;;;;;5014487;28;20030;-70
2023/07/09 10:20:09;;;;;;;18.17;11.43;;;;;;;;;;5023120;28;20034;-69
2023/07/09 10:22:38;;;;;;;21.55;13.15;;;;;;;;;;5034153;28;20021;-69
2023/07/09 10:25:15;;;;;;;19.08;13.43;;;;;;;;;;5025718;28;20053;-69
2023/07/09 10:28:00;;;;;;;25.20;13.15;;;;;;;;;;5014388;28;20025;-69
2023/07/09 10:30:26;;;;;;;19.80;10.45;;;;;;;;;;5013992;28;20030;-68
2023/07/09 10:32:57;;;;;;;17.77;11.75;;;;;;;;;;5032911;28;20021;-70
2023/07/09 10:35:30;;;;;;;18.77;12.88;;;;;;;;;;5028936;28;20025;-71
2023/07/09 10:38:05;;;;;;;17.75;11.98;;;;;;;;;;5032906;28;20120;-64
2023/07/09 10:40:37;;;;;;;16.15;9.35;;;;;;;;;;5031417;28;20021;-68
2023/07/09 10:43:05;;;;;;;14.68;8.32;;;;;;;;;;5032278;28;20414;-66
2023/07/09 10:45:39;;;;;;;28.38;18.88;;;;;;;;;;5030983;28;20095;-68
2023/07/09 10:48:10;;;;;;;40.47;25.02;;;;;;;;;;5030150;28;20024;-66
2023/07/09 10:50:41;;;;;;;24.02;15.90;;;;;;;;;;5032557;28;20398;-67
2023/07/09 10:53:27;;;;;;;21.40;14.32;;;;;;;;;;5030803;28;20014;-68
2023/07/09 10:55:56;;;;;;;24.52;12.40;;;;;;;;;;5031284;28;20043;-67
2023/07/09 10:58:38;;;;;;;20.92;12.93;;;;;;;;;;5029896;28;20095;-68
2023/07/09 11:01:05;;;;;;;26.50;15.52;;;;;;;;;;5030223;28;20045;-73
2023/07/09 11:03:39;;;;;;;22.60;14.40;;;;;;;;;;5032696;28;20121;-69
2023/07/09 11:06:11;;;;;;;24.67;12.90;;;;;;;;;;5029079;28;20045;-70
2023/07/09 11:08:39;;;;;;;19.15;11.38;;;;;;;;;;5028229;28;20471;-69
2023/07/09 11:11:10;;;;;;;28.20;16.80;;;;;;;;;;5033210;28;20049;-68
2023/07/09 11:13:41;;;;;;;33.97;17.58;;;;;;;;;;5031247;28;20017;-69
2023/07/09 11:16:08;;;;;;;16.55;9.35;;;;;;;;;;5023563;28;20378;-69
2023/07/09 11:18:36;;;;;;;19.85;10.57;;;;;;;;;;5013355;28;20033;-69
2023/07/09 11:21:06;;;;;;;21.00;9.43;;;;;;;;;;5013526;28;20026;-70
2023/07/09 11:23:40;;;;;;;13.85;8.80;;;;;;;;;;5022631;28;20470;-70
2023/07/09 11:26:13;;;;;;;12.13;8.02;;;;;;;;;;5014485;28;20153;-70
2023/07/09 11:28:41;;;;;;;16.88;10.35;;;;;;;;;;5013329;28;20049;-70
2023/07/09 11:31:09;;;;;;;26.48;15.95;;;;;;;;;;5013526;28;20104;-70
2023/07/09 11:33:45;;;;;;;36.03;19.40;;;;;;;;;;5013339;28;20022;-69
2023/07/09 11:36:15;;;;;;;30.08;17.55;;;;;;;;;;5013597;28;20014;-70
2023/07/09 11:38:44;;;;;;;26.60;15.75;;;;;;;;;;5013363;28;20025;-69
2023/07/09 11:41:30;;;;;;;36.90;24.05;;;;;;;;;;5013075;28;20104;-69
2023/07/09 11:44:13;;;;;;;36.17;21.77;;;;;;;;;;5052658;28;20043;-68
2023/07/09 11:46:39;;;;;;;;;;;;;;;;;;5053186;28;20053;-69
2023/07/09 11:49:07;;;;;;;37.30;20.73;;;;;;;;;;5052629;28;19935;-68
2023/07/09 11:51:44;;;;;;;34.92;19.42;;;;;;;;;;5053653;28;20020;-72
2023/07/09 11:54:14;;;;;;;34.83;17.02;;;;;;;;;;5047993;28;20099;-72
2023/07/09 11:56:41;;;;;;;23.45;13.93;;;;;;;;;;5025424;28;20030;-72
2023/07/09 11:59:11;;;;;;;25.10;12.70;;;;;;;;;;5017737;28;20537;-71
2023/07/09 12:01:41;;;;;;;24.95;11.77;;;;;;;;;;5023169;28;20029;-70
2023/07/09 12:04:12;;;;;;;22.38;11.40;;;;;;;;;;5022972;28;20032;-70
2023/07/09 12:06:41;;;;;;;19.70;11.02;;;;;;;;;;5016597;28;20467;-72
2023/07/09 12:09:10;;;;;;;16.02;9.45;;;;;;;;;;5024733;28;20021;-70
2023/07/09 12:11:36;;;;;;;17.38;10.93;;;;;;;;;;5035927;28;20025;-70
2023/07/09 12:14:04;;;;;;;23.05;10.52;;;;;;;;;;5036024;28;20056;-71
2023/07/09 12:16:33;;;;;;;19.17;10.88;;;;;;;;;;5036215;28;20021;-70
2023/07/09 12:19:00;;;;;;;16.55;10.68;;;;;;;;;;5036217;28;20376;-71
2023/07/09 12:21:27;;;;;;;23.17;12.13;;;;;;;;;;5036489;28;20026;-72
2023/07/09 12:23:56;;;;;;;17.42;10.93;;;;;;;;;;5035958;28;20054;-72
2023/07/09 12:26:23;;;;;;;16.77;10.77;;;;;;;;;;5029485;28;20030;-71
2023/07/09 12:28:52;;;;;;;18.63;11.55;;;;;;;;;;5016890;28;20080;-71
2023/07/09 12:31:19;;;;;;;16.77;10.85;;;;;;;;;;5015976;28;20106;-73
2023/07/09 12:33:48;;;;;;;18.20;10.27;;;;;;;;;;5015742;28;20018;-73
2023/07/09 12:36:15;;;;;;;17.98;10.23;;;;;;;;;;5015777;28;20104;-72
2023/07/09 12:38:44;;;;;;;18.55;10.00;;;;;;;;;;5015753;28;20105;-72
2023/07/09 12:41:18;;;;;;;23.92;10.82;;;;;;;;;;5015559;28;20475;-73
2023/07/09 12:43:45;;;;;;;13.52;10.63;;;;;;;;;;5015601;28;20072;-71
2023/07/09 12:46:11;;;;;;;16.92;11.90;;;;;;;;;;5015506;28;20494;-70
2023/07/09 12:48:38;;;;;;;23.33;12.48;;;;;;;;;;5014332;28;20034;-68
2023/07/09 12:51:08;;;;;;;25.75;12.98;;;;;;;;;;5015028;28;20014;-68
2023/07/09 12:53:37;;;;;;;19.67;12.00;;;;;;;;;;5015399;28;20037;-67
2023/07/09 12:56:11;;;;;;;25.38;17.20;;;;;;;;;;5015342;28;20030;-68
2023/07/09 12:58:38;;;;;;;21.85;16.52;;;;;;;;;;5015094;28;20050;-68
2023/07/09 13:01:06;;;;;;;19.45;14.07;;;;;;;;;;5015243;28;20021;-72
2023/07/09 13:03:34;;;;;;;24.70;13.52;;;;;;;;;;5015229;28;20057;-72
2023/07/09 13:06:04;;;;;;;27.38;13.20;;;;;;;;;;5015184;28;20026;-71
2023/07/09 13:08:34;;;;;;;23.50;13.73;;;;;;;;;;5039330;28;20104;-70
2023/07/09 13:11:01;;;;;;;21.35;12.82;;;;;;;;;;5023863;28;20487;-66
2023/07/09 13:13:28;;;;;;;28.58;16.63;;;;;;;;;;5014993;28;20048;-69
2023/07/09 13:16:00;;;;;;;40.53;23.10;;;;;;;;;;5016446;28;20041;-69
2023/07/09 13:18:27;;;;;;;68.82;35.88;;;;;;;;;;5023623;28;20022;-68
2023/07/09 13:20:55;;;;;;;69.03;34.17;;;;;;;;;;5014940;28;20028;-67
2023/07/09 13:23:25;;;;;;;56.22;31.08;;;;;;;;;;5014833;28;20025;-74
2023/07/09 13:25:54;;;;;;;52.47;29.63;;;;;;;;;;5014997;28;20463;-74
2023/07/09 13:28:22;;;;;;;66.90;29.23;;;;;;;;;;5017102;28;20207;-74
2023/07/09 13:30:50;;;;;;;51.58;27.45;;;;;;;;;;5034455;28;20521;-75
2023/07/09 13:33:17;;;;;;;57.00;29.80;;;;;;;;;;5034368;28;20530;-69
2023/07/09 13:35:45;;;;;;;56.83;29.02;;;;;;;;;;5034121;28;20278;-73
2023/07/09 13:38:15;;;;;;;40.72;24.65;;;;;;;;;;5033223;28;20025;-74
2023/07/09 13:40:43;;;;;;;39.97;20.75;;;;;;;;;;5034301;28;20357;-74
2023/07/09 13:43:13;;;;;;;30.45;19.42;;;;;;;;;;5031605;28;20021;-74
2023/07/09 13:45:40;;;;;;;27.27;16.75;;;;;;;;;;5034018;28;20090;-75
2023/07/09 13:48:12;;;;;;;31.63;16.35;;;;;;;;;;5032672;28;20119;-74
2023/07/09 13:50:39;;;;;;;26.35;15.73;;;;;;;;;;5033931;28;20021;-74
2023/07/09 13:53:10;;;;;;;23.65;14.63;;;;;;;;;;5034005;28;20020;-73
2023/07/09 13:55:37;;;;;;;36.28;18.83;;;;;;;;;;5033163;28;20029;-74
2023/07/09 13:58:03;;;;;;;38.85;20.00;;;;;;;;;;5033352;28;20045;-71
2023/07/09 14:00:30;;;;;;;35.45;18.08;;;;;;;;;;5033771;28;20368;-72
2023/07/09 14:02:56;;;;;;;109.35;74.35;;;;;;;;;;5032922;28;20030;-72
2023/07/09 14:05:23;;;;;;;50.63;32.47;;;;;;;;;;5033416;28;20045;-72
2023/07/09 14:07:50;;;;;;;82.13;46.53;;;;;;;;;;5033557;28;20025;-69
2023/07/09 14:10:17;;;;;;;70.70;44.08;;;;;;;;;;5033503;28;20025;-73
2023/07/09 14:12:45;;;;;;;91.93;61.28;;;;;;;;;;5033382;28;20427;-75
2023/07/09 14:15:15;;;;;;;41.65;25.48;;;;;;;;;;5032423;28;20593;-73
2023/07/09 14:17:43;;;;;;;32.42;19.60;;;;;;;;;;5025877;28;20029;-73
2023/07/09 14:20:12;;;;;;;28.83;17.10;;;;;;;;;;5013647;28;20049;-71
2023/07/09 14:22:42;;;;;;;24.10;16.65;;;;;;;;;;5032844;28;20040;-68
2023/07/09 14:25:10;;;;;;;28.73;16.08;;;;;;;;;;5025610;28;20036;-69
2023/07/09 14:27:37;;;;;;;28.77;13.82;;;;;;;;;;5024684;28;20034;-71
2023/07/09 14:30:03;;;;;;;25.35;13.70;;;;;;;;;;5020186;28;20030;-72